sensor_id;sensor_type;location;lat;lon;timestamp;P1;durP1;ratioP1;P2;durP2;ratioP2
13651;SDS011;6899;51.546;6.912;2022-10-03T00:01:00;22.23;;;6.75;;
13651;SDS011;6899;51.546;6.912;2022-10-03T00:03:47;14.57;;;5.95;;
13651;SDS011;6899;51.546;6.912;2022-10-03T00:06:24;13.82;;;6.13;;
13651;SDS011;6899;51.546;6.912;2022-10-03T00:09:10;10.57;;;6.10;;
13651;SDS011;6899;51.546;6.912;2022-10-03T00:12:01;17.23;;;6.95;;
13651;SDS011;6899;51.546;6.912;2022-10-03T00:14:37;14.65;;;6.47;;
13651;SDS011;6899;51.546;6.912;2022-10-03T00:17:14;15.98;;;7.10;;
13651;SDS011;6899;51.546;6.912;2022-10-03T00:19:50;16.13;;;7.28;;
13651;SDS011;6899;51.546;6.912;2022-10-03T00:22:25;18.85;;;7.35;;
13651;SDS011;6899;51.546;6.912;2022-10-03T00:25:14;23.67;;;8.75;;
13651;SDS011;6899;51.546;6.912;2022-10-03T00:27:55;22.30;;;9.40;;
13651;SDS011;6899;51.546;6.912;2022-10-03T00:30:45;25.38;;;9.63;;
13651;SDS011;6899;51.546;6.912;2022-10-03T00:33:25;28.63;;;11.20;;
13651;SDS011;6899;51.546;6.912;2022-10-03T00:36:05;18.38;;;9.00;;
13651;SDS011;6899;51.546;6.912;2022-10-03T00:42:05;23.92;;;9.30;;
13651;SDS011;6899;51.546;6.912;2022-10-03T00:45:19;28.70;;;10.52;;
13651;SDS011;6899;51.546;6.912;2022-10-03T00:51:35;25.27;;;9.30;;
13651;SDS011;6899;51.546;6.912;2022-10-03T00:54:32;22.35;;;10.20;;
13651;SDS011;6899;51.546;6.912;2022-10-03T00:57:09;20.15;;;10.25;;
13651;SDS011;6899;51.546;6.912;2022-10-03T00:59:53;17.50;;;8.45;;
13651;SDS011;6899;51.546;6.912;2022-10-03T01:02:33;25.20;;;11.55;;
13651;SDS011;6899;51.546;6.912;2022-10-03T01:05:10;28.90;;;13.90;;
13651;SDS011;6899;51.546;6.912;2022-10-03T01:07:57;36.35;;;13.10;;
13651;SDS011;6899;51.546;6.912;2022-10-03T01:10:50;28.10;;;12.32;;
13651;SDS011;6899;51.546;6.912;2022-10-03T01:13:27;30.13;;;12.10;;
13651;SDS011;6899;51.546;6.912;2022-10-03T01:16:05;27.02;;;12.65;;
13651;SDS011;6899;51.546;6.912;2022-10-03T01:18:40;23.52;;;11.40;;
13651;SDS011;6899;51.546;6.912;2022-10-03T01:21:18;22.15;;;10.75;;
13651;SDS011;6899;51.546;6.912;2022-10-03T01:24:09;29.60;;;13.38;;
13651;SDS011;6899;51.546;6.912;2022-10-03T01:26:54;23.40;;;10.18;;
13651;SDS011;6899;51.546;6.912;2022-10-03T01:29:29;21.13;;;12.20;;
13651;SDS011;6899;51.546;6.912;2022-10-03T01:32:27;26.50;;;12.82;;
13651;SDS011;6899;51.546;6.912;2022-10-03T01:35:04;30.20;;;13.00;;
13651;SDS011;6899;51.546;6.912;2022-10-03T01:37:53;30.00;;;13.02;;
13651;SDS011;6899;51.546;6.912;2022-10-03T01:40:27;32.45;;;13.65;;
13651;SDS011;6899;51.546;6.912;2022-10-03T01:43:07;28.63;;;13.85;;
13651;SDS011;6899;51.546;6.912;2022-10-03T01:45:43;32.63;;;13.88;;
13651;SDS011;6899;51.546;6.912;2022-10-03T01:48:19;39.00;;;14.35;;
13651;SDS011;6899;51.546;6.912;2022-10-03T01:50:53;31.25;;;12.70;;
13651;SDS011;6899;51.546;6.912;2022-10-03T01:53:28;28.52;;;13.95;;
13651;SDS011;6899;51.546;6.912;2022-10-03T01:56:05;23.55;;;12.68;;
13651;SDS011;6899;51.546;6.912;2022-10-03T01:58:40;41.40;;;15.48;;
13651;SDS011;6899;51.546;6.912;2022-10-03T02:01:23;38.35;;;15.32;;
13651;SDS011;6899;51.546;6.912;2022-10-03T02:03:56;40.10;;;15.85;;
13651;SDS011;6899;51.546;6.912;2022-10-03T02:06:33;35.67;;;14.60;;
13651;SDS011;6899;51.546;6.912;2022-10-03T02:09:10;32.17;;;15.32;;
13651;SDS011;6899;51.546;6.912;2022-10-03T02:11:54;33.78;;;14.52;;
13651;SDS011;6899;51.546;6.912;2022-10-03T02:14:27;33.17;;;14.63;;
13651;SDS011;6899;51.546;6.912;2022-10-03T02:17:02;30.20;;;13.38;;
13651;SDS011;6899;51.546;6.912;2022-10-03T02:19:35;41.45;;;15.85;;
13651;SDS011;6899;51.546;6.912;2022-10-03T02:22:13;36.13;;;13.30;;
13651;SDS011;6899;51.546;6.912;2022-10-03T02:24:43;31.45;;;14.50;;
13651;SDS011;6899;51.546;6.912;2022-10-03T02:27:23;32.72;;;12.98;;
13651;SDS011;6899;51.546;6.912;2022-10-03T02:30:16;36.50;;;15.23;;
13651;SDS011;6899;51.546;6.912;2022-10-03T02:35:50;28.48;;;13.15;;
13651;SDS011;6899;51.546;6.912;2022-10-03T02:38:57;33.47;;;14.88;;
13651;SDS011;6899;51.546;6.912;2022-10-03T02:41:49;31.98;;;13.80;;
13651;SDS011;6899;51.546;6.912;2022-10-03T02:47:48;36.85;;;15.48;;
13651;SDS011;6899;51.546;6.912;2022-10-03T02:51:04;39.08;;;15.70;;
13651;SDS011;6899;51.546;6.912;2022-10-03T02:53:56;36.60;;;15.07;;
13651;SDS011;6899;51.546;6.912;2022-10-03T03:00:10;43.60;;;17.33;;
13651;SDS011;6899;51.546;6.912;2022-10-03T03:02:47;35.85;;;16.75;;
13651;SDS011;6899;51.546;6.912;2022-10-03T03:08:38;33.42;;;18.63;;
13651;SDS011;6899;51.546;6.912;2022-10-03T03:14:38;35.28;;;17.38;;
13651;SDS011;6899;51.546;6.912;2022-10-03T03:17:41;30.27;;;16.77;;
13651;SDS011;6899;51.546;6.912;2022-10-03T03:20:23;52.05;;;19.65;;
13651;SDS011;6899;51.546;6.912;2022-10-03T03:23:04;42.30;;;17.55;;
13651;SDS011;6899;51.546;6.912;2022-10-03T03:25:54;35.72;;;17.27;;
13651;SDS011;6899;51.546;6.912;2022-10-03T03:28:35;42.25;;;20.15;;
13651;SDS011;6899;51.546;6.912;2022-10-03T03:31:09;38.28;;;16.70;;
13651;SDS011;6899;51.546;6.912;2022-10-03T03:33:42;40.95;;;18.35;;
13651;SDS011;6899;51.546;6.912;2022-10-03T03:36:19;37.85;;;18.75;;
13651;SDS011;6899;51.546;6.912;2022-10-03T03:38:52;38.30;;;17.83;;
13651;SDS011;6899;51.546;6.912;2022-10-03T03:41:39;36.03;;;16.27;;
13651;SDS011;6899;51.546;6.912;2022-10-03T03:47:29;25.00;;;12.77;;
13651;SDS011;6899;51.546;6.912;2022-10-03T03:50:16;49.28;;;20.73;;
13651;SDS011;6899;51.546;6.912;2022-10-03T03:53:10;32.42;;;14.68;;
13651;SDS011;6899;51.546;6.912;2022-10-03T03:55:55;29.98;;;14.80;;
13651;SDS011;6899;51.546;6.912;2022-10-03T03:58:35;29.45;;;13.65;;
13651;SDS011;6899;51.546;6.912;2022-10-03T04:01:18;47.22;;;21.13;;
13651;SDS011;6899;51.546;6.912;2022-10-03T04:04:04;36.47;;;16.80;;
13651;SDS011;6899;51.546;6.912;2022-10-03T04:06:46;25.33;;;13.88;;
13651;SDS011;6899;51.546;6.912;2022-10-03T04:09:26;32.70;;;17.25;;
13651;SDS011;6899;51.546;6.912;2022-10-03T04:12:16;36.55;;;17.65;;
13651;SDS011;6899;51.546;6.912;2022-10-03T04:15:04;40.95;;;18.20;;
13651;SDS011;6899;51.546;6.912;2022-10-03T04:17:45;26.98;;;15.38;;
13651;SDS011;6899;51.546;6.912;2022-10-03T04:23:45;53.45;;;21.52;;
13651;SDS011;6899;51.546;6.912;2022-10-03T04:26:25;51.40;;;20.52;;
13651;SDS011;6899;51.546;6.912;2022-10-03T04:29:10;40.13;;;16.73;;
13651;SDS011;6899;51.546;6.912;2022-10-03T04:32:09;46.58;;;20.15;;
13651;SDS011;6899;51.546;6.912;2022-10-03T04:34:55;36.97;;;17.63;;
13651;SDS011;6899;51.546;6.912;2022-10-03T04:37:38;38.45;;;17.52;;
13651;SDS011;6899;51.546;6.912;2022-10-03T04:40:16;36.58;;;19.17;;
13651;SDS011;6899;51.546;6.912;2022-10-03T04:42:53;45.88;;;19.45;;
13651;SDS011;6899;51.546;6.912;2022-10-03T04:45:41;40.78;;;18.05;;
13651;SDS011;6899;51.546;6.912;2022-10-03T04:48:23;44.92;;;20.60;;
13651;SDS011;6899;51.546;6.912;2022-10-03T04:50:59;46.75;;;20.65;;
13651;SDS011;6899;51.546;6.912;2022-10-03T04:53:41;43.47;;;20.58;;
13651;SDS011;6899;51.546;6.912;2022-10-03T04:56:23;45.72;;;20.08;;
13651;SDS011;6899;51.546;6.912;2022-10-03T04:59:03;40.58;;;21.02;;
13651;SDS011;6899;51.546;6.912;2022-10-03T05:01:42;41.15;;;18.70;;
13651;SDS011;6899;51.546;6.912;2022-10-03T05:04:33;35.95;;;17.25;;
13651;SDS011;6899;51.546;6.912;2022-10-03T05:07:10;34.95;;;18.10;;
13651;SDS011;6899;51.546;6.912;2022-10-03T05:09:47;41.90;;;20.67;;
13651;SDS011;6899;51.546;6.912;2022-10-03T05:12:24;42.63;;;20.42;;
13651;SDS011;6899;51.546;6.912;2022-10-03T05:15:06;47.25;;;20.73;;
13651;SDS011;6899;51.546;6.912;2022-10-03T05:17:45;59.53;;;21.98;;
13651;SDS011;6899;51.546;6.912;2022-10-03T05:20:21;45.92;;;20.25;;
13651;SDS011;6899;51.546;6.912;2022-10-03T05:22:57;44.58;;;20.67;;
13651;SDS011;6899;51.546;6.912;2022-10-03T05:25:42;53.85;;;21.23;;
13651;SDS011;6899;51.546;6.912;2022-10-03T05:28:20;38.95;;;19.17;;
13651;SDS011;6899;51.546;6.912;2022-10-03T05:30:58;40.45;;;20.30;;
13651;SDS011;6899;51.546;6.912;2022-10-03T05:33:32;39.65;;;20.55;;
13651;SDS011;6899;51.546;6.912;2022-10-03T05:36:12;51.25;;;23.45;;
13651;SDS011;6899;51.546;6.912;2022-10-03T05:39:18;45.75;;;21.48;;
13651;SDS011;6899;51.546;6.912;2022-10-03T05:41:51;47.53;;;22.48;;
13651;SDS011;6899;51.546;6.912;2022-10-03T05:44:25;53.75;;;23.65;;
13651;SDS011;6899;51.546;6.912;2022-10-03T05:47:07;51.65;;;23.92;;
13651;SDS011;6899;51.546;6.912;2022-10-03T05:50:12;46.92;;;23.75;;
13651;SDS011;6899;51.546;6.912;2022-10-03T05:52:59;53.58;;;24.75;;
13651;SDS011;6899;51.546;6.912;2022-10-03T05:55:45;51.90;;;24.08;;
13651;SDS011;6899;51.546;6.912;2022-10-03T05:58:23;45.67;;;23.42;;
13651;SDS011;6899;51.546;6.912;2022-10-03T06:01:09;49.90;;;23.30;;
13651;SDS011;6899;51.546;6.912;2022-10-03T06:04:00;46.53;;;23.73;;
13651;SDS011;6899;51.546;6.912;2022-10-03T06:06:47;65.45;;;25.27;;
13651;SDS011;6899;51.546;6.912;2022-10-03T06:09:43;48.70;;;23.73;;
13651;SDS011;6899;51.546;6.912;2022-10-03T06:12:33;51.13;;;23.92;;
13651;SDS011;6899;51.546;6.912;2022-10-03T06:15:14;47.20;;;23.00;;
13651;SDS011;6899;51.546;6.912;2022-10-03T06:17:55;54.97;;;25.67;;
13651;SDS011;6899;51.546;6.912;2022-10-03T06:20:37;45.67;;;22.60;;
13651;SDS011;6899;51.546;6.912;2022-10-03T06:26:35;48.97;;;24.38;;
13651;SDS011;6899;51.546;6.912;2022-10-03T06:29:41;49.90;;;22.60;;
13651;SDS011;6899;51.546;6.912;2022-10-03T06:35:55;50.00;;;24.35;;
13651;SDS011;6899;51.546;6.912;2022-10-03T06:51:30;44.30;;;26.40;;
13651;SDS011;6899;51.546;6.912;2022-10-03T06:54:23;43.00;;;23.52;;
13651;SDS011;6899;51.546;6.912;2022-10-03T06:57:25;43.40;;;22.35;;
13651;SDS011;6899;51.546;6.912;2022-10-03T07:00:09;38.28;;;22.83;;
13651;SDS011;6899;51.546;6.912;2022-10-03T07:08:55;38.15;;;22.63;;
13651;SDS011;6899;51.546;6.912;2022-10-03T07:12:14;41.40;;;21.15;;
13651;SDS011;6899;51.546;6.912;2022-10-03T07:15:23;42.25;;;21.80;;
13651;SDS011;6899;51.546;6.912;2022-10-03T07:18:13;39.60;;;23.17;;
13651;SDS011;6899;51.546;6.912;2022-10-03T07:27:43;35.80;;;18.08;;
13651;SDS011;6899;51.546;6.912;2022-10-03T07:30:30;36.58;;;17.38;;
13651;SDS011;6899;51.546;6.912;2022-10-03T07:36:19;30.70;;;16.50;;
13651;SDS011;6899;51.546;6.912;2022-10-03T07:42:34;28.38;;;15.27;;
13651;SDS011;6899;51.546;6.912;2022-10-03T07:45:26;22.48;;;14.82;;
13651;SDS011;6899;51.546;6.912;2022-10-03T07:48:03;23.85;;;15.15;;
13651;SDS011;6899;51.546;6.912;2022-10-03T07:50:48;26.60;;;14.13;;
13651;SDS011;6899;51.546;6.912;2022-10-03T07:56:57;23.40;;;14.32;;
13651;SDS011;6899;51.546;6.912;2022-10-03T08:06:10;25.45;;;16.38;;
13651;SDS011;6899;51.546;6.912;2022-10-03T08:08:57;27.70;;;16.30;;
13651;SDS011;6899;51.546;6.912;2022-10-03T08:11:48;27.60;;;14.52;;
13651;SDS011;6899;51.546;6.912;2022-10-03T08:14:53;24.10;;;13.80;;
13651;SDS011;6899;51.546;6.912;2022-10-03T08:17:36;24.23;;;13.73;;
13651;SDS011;6899;51.546;6.912;2022-10-03T08:20:46;22.60;;;12.50;;
13651;SDS011;6899;51.546;6.912;2022-10-03T08:26:31;20.30;;;12.82;;
13651;SDS011;6899;51.546;6.912;2022-10-03T08:29:27;17.30;;;11.45;;
13651;SDS011;6899;51.546;6.912;2022-10-03T08:35:23;17.90;;;9.68;;
13651;SDS011;6899;51.546;6.912;2022-10-03T08:38:30;20.60;;;11.15;;
13651;SDS011;6899;51.546;6.912;2022-10-03T08:54:01;24.38;;;9.73;;
13651;SDS011;6899;51.546;6.912;2022-10-03T08:56:43;19.63;;;9.32;;
13651;SDS011;6899;51.546;6.912;2022-10-03T08:59:36;14.68;;;8.93;;
13651;SDS011;6899;51.546;6.912;2022-10-03T09:09:11;14.50;;;7.47;;
13651;SDS011;6899;51.546;6.912;2022-10-03T09:11:52;13.20;;;7.47;;
13651;SDS011;6899;51.546;6.912;2022-10-03T09:14:44;15.68;;;7.30;;
13651;SDS011;6899;51.546;6.912;2022-10-03T09:20:35;12.80;;;6.65;;
13651;SDS011;6899;51.546;6.912;2022-10-03T09:23:38;16.92;;;6.97;;
13651;SDS011;6899;51.546;6.912;2022-10-03T09:26:27;14.07;;;6.85;;
13651;SDS011;6899;51.546;6.912;2022-10-03T09:29:26;13.60;;;6.38;;
13651;SDS011;6899;51.546;6.912;2022-10-03T09:35:09;10.82;;;5.15;;
13651;SDS011;6899;51.546;6.912;2022-10-03T09:41:11;12.75;;;5.55;;
13651;SDS011;6899;51.546;6.912;2022-10-03T09:44:20;11.82;;;5.65;;
13651;SDS011;6899;51.546;6.912;2022-10-03T09:50:33;10.13;;;6.45;;
13651;SDS011;6899;51.546;6.912;2022-10-03T09:53:27;11.93;;;4.72;;
13651;SDS011;6899;51.546;6.912;2022-10-03T09:56:12;11.60;;;5.00;;
13651;SDS011;6899;51.546;6.912;2022-10-03T09:59:08;11.15;;;5.32;;
13651;SDS011;6899;51.546;6.912;2022-10-03T10:01:49;15.57;;;5.38;;
13651;SDS011;6899;51.546;6.912;2022-10-03T10:04:29;12.65;;;4.75;;
13651;SDS011;6899;51.546;6.912;2022-10-03T10:07:29;12.07;;;3.13;;
13651;SDS011;6899;51.546;6.912;2022-10-03T10:10:25;6.47;;;2.03;;
13651;SDS011;6899;51.546;6.912;2022-10-03T10:16:38;9.73;;;2.00;;
13651;SDS011;6899;51.546;6.912;2022-10-03T10:19:18;9.77;;;2.05;;
13651;SDS011;6899;51.546;6.912;2022-10-03T10:28:20;11.65;;;2.72;;
13651;SDS011;6899;51.546;6.912;2022-10-03T10:34:23;7.53;;;2.28;;
13651;SDS011;6899;51.546;6.912;2022-10-03T10:37:32;5.97;;;2.13;;
13651;SDS011;6899;51.546;6.912;2022-10-03T10:40:36;4.60;;;2.25;;
13651;SDS011;6899;51.546;6.912;2022-10-03T10:43:32;3.90;;;1.98;;
13651;SDS011;6899;51.546;6.912;2022-10-03T10:46:48;6.25;;;1.92;;
13651;SDS011;6899;51.546;6.912;2022-10-03T10:50:03;5.97;;;2.08;;
13651;SDS011;6899;51.546;6.912;2022-10-03T10:56:16;6.55;;;2.08;;
13651;SDS011;6899;51.546;6.912;2022-10-03T11:06:37;6.35;;;1.75;;
13651;SDS011;6899;51.546;6.912;2022-10-03T11:09:46;10.77;;;2.60;;
13651;SDS011;6899;51.546;6.912;2022-10-03T11:19:20;4.45;;;1.98;;
13651;SDS011;6899;51.546;6.912;2022-10-03T11:25:45;4.63;;;1.40;;
13651;SDS011;6899;51.546;6.912;2022-10-03T11:38:00;4.32;;;1.90;;
13651;SDS011;6899;51.546;6.912;2022-10-03T11:40:38;7.32;;;1.90;;
13651;SDS011;6899;51.546;6.912;2022-10-03T11:43:31;6.15;;;2.00;;
13651;SDS011;6899;51.546;6.912;2022-10-03T11:46:38;5.53;;;1.67;;
13651;SDS011;6899;51.546;6.912;2022-10-03T11:49:47;5.65;;;2.03;;
13651;SDS011;6899;51.546;6.912;2022-10-03T11:52:27;7.45;;;1.83;;
13651;SDS011;6899;51.546;6.912;2022-10-03T11:55:02;7.07;;;1.60;;
13651;SDS011;6899;51.546;6.912;2022-10-03T11:57:42;9.10;;;1.85;;
13651;SDS011;6899;51.546;6.912;2022-10-03T12:00:17;4.22;;;1.40;;
13651;SDS011;6899;51.546;6.912;2022-10-03T12:05:52;4.18;;;1.70;;
13651;SDS011;6899;51.546;6.912;2022-10-03T12:08:36;4.97;;;1.70;;
13651;SDS011;6899;51.546;6.912;2022-10-03T12:11:23;6.03;;;1.80;;
13651;SDS011;6899;51.546;6.912;2022-10-03T12:14:02;3.40;;;1.33;;
13651;SDS011;6899;51.546;6.912;2022-10-03T12:16:48;4.43;;;1.70;;
13651;SDS011;6899;51.546;6.912;2022-10-03T12:19:25;9.32;;;2.22;;
13651;SDS011;6899;51.546;6.912;2022-10-03T12:21:56;7.22;;;1.88;;
13651;SDS011;6899;51.546;6.912;2022-10-03T12:24:31;3.80;;;1.67;;
13651;SDS011;6899;51.546;6.912;2022-10-03T12:27:04;5.07;;;1.50;;
13651;SDS011;6899;51.546;6.912;2022-10-03T12:29:53;4.78;;;1.65;;
13651;SDS011;6899;51.546;6.912;2022-10-03T12:32:25;4.90;;;1.80;;
13651;SDS011;6899;51.546;6.912;2022-10-03T12:35:07;3.10;;;1.40;;
13651;SDS011;6899;51.546;6.912;2022-10-03T12:37:50;5.45;;;2.20;;
13651;SDS011;6899;51.546;6.912;2022-10-03T12:40:29;6.32;;;1.70;;
13651;SDS011;6899;51.546;6.912;2022-10-03T12:43:07;6.93;;;1.77;;
13651;SDS011;6899;51.546;6.912;2022-10-03T12:45:47;5.00;;;1.65;;
13651;SDS011;6899;51.546;6.912;2022-10-03T12:48:23;2.97;;;1.40;;
13651;SDS011;6899;51.546;6.912;2022-10-03T12:51:14;5.90;;;1.40;;
13651;SDS011;6899;51.546;6.912;2022-10-03T12:53:50;2.97;;;1.23;;
13651;SDS011;6899;51.546;6.912;2022-10-03T12:56:28;3.40;;;1.25;;
13651;SDS011;6899;51.546;6.912;2022-10-03T12:59:06;5.95;;;1.85;;
13651;SDS011;6899;51.546;6.912;2022-10-03T13:01:54;3.72;;;1.92;;
13651;SDS011;6899;51.546;6.912;2022-10-03T13:04:42;3.50;;;1.58;;
13651;SDS011;6899;51.546;6.912;2022-10-03T13:07:25;4.93;;;1.60;;
13651;SDS011;6899;51.546;6.912;2022-10-03T13:10:08;3.97;;;1.67;;
13651;SDS011;6899;51.546;6.912;2022-10-03T13:12:44;6.07;;;1.58;;
13651;SDS011;6899;51.546;6.912;2022-10-03T13:18:25;3.58;;;1.27;;
13651;SDS011;6899;51.546;6.912;2022-10-03T13:21:00;3.80;;;1.52;;
13651;SDS011;6899;51.546;6.912;2022-10-03T13:23:37;5.28;;;1.77;;
13651;SDS011;6899;51.546;6.912;2022-10-03T13:26:12;5.13;;;1.80;;
13651;SDS011;6899;51.546;6.912;2022-10-03T13:28:49;3.65;;;1.30;;
13651;SDS011;6899;51.546;6.912;2022-10-03T13:31:38;13.73;;;8.77;;
13651;SDS011;6899;51.546;6.912;2022-10-03T13:34:21;4.57;;;1.48;;
13651;SDS011;6899;51.546;6.912;2022-10-03T13:36:52;4.47;;;1.33;;
13651;SDS011;6899;51.546;6.912;2022-10-03T13:39:23;3.65;;;1.55;;
13651;SDS011;6899;51.546;6.912;2022-10-03T13:41:59;4.05;;;1.20;;
13651;SDS011;6899;51.546;6.912;2022-10-03T13:44:36;3.40;;;1.63;;
13651;SDS011;6899;51.546;6.912;2022-10-03T13:47:13;2.90;;;1.50;;
13651;SDS011;6899;51.546;6.912;2022-10-03T13:49:51;5.20;;;1.40;;
13651;SDS011;6899;51.546;6.912;2022-10-03T13:52:22;3.15;;;1.35;;
13651;SDS011;6899;51.546;6.912;2022-10-03T13:55:00;4.57;;;1.70;;
13651;SDS011;6899;51.546;6.912;2022-10-03T13:57:45;4.93;;;2.30;;
13651;SDS011;6899;51.546;6.912;2022-10-03T14:00:21;4.78;;;1.75;;
13651;SDS011;6899;51.546;6.912;2022-10-03T14:02:53;4.97;;;1.70;;
13651;SDS011;6899;51.546;6.912;2022-10-03T14:08:57;5.85;;;1.30;;
13651;SDS011;6899;51.546;6.912;2022-10-03T14:11:44;3.67;;;1.50;;
13651;SDS011;6899;51.546;6.912;2022-10-03T14:14:27;3.25;;;1.38;;
13651;SDS011;6899;51.546;6.912;2022-10-03T14:17:10;5.13;;;1.20;;
13651;SDS011;6899;51.546;6.912;2022-10-03T14:19:48;3.53;;;1.60;;
13651;SDS011;6899;51.546;6.912;2022-10-03T14:22:29;3.63;;;1.35;;
13651;SDS011;6899;51.546;6.912;2022-10-03T14:25:13;3.75;;;1.40;;
13651;SDS011;6899;51.546;6.912;2022-10-03T14:27:48;4.18;;;1.50;;
13651;SDS011;6899;51.546;6.912;2022-10-03T14:30:17;3.83;;;1.60;;
13651;SDS011;6899;51.546;6.912;2022-10-03T14:32:48;6.82;;;1.90;;
13651;SDS011;6899;51.546;6.912;2022-10-03T14:35:35;4.43;;;2.47;;
13651;SDS011;6899;51.546;6.912;2022-10-03T14:38:19;4.18;;;2.60;;
13651;SDS011;6899;51.546;6.912;2022-10-03T14:41:23;7.43;;;3.45;;
13651;SDS011;6899;51.546;6.912;2022-10-03T14:43:55;5.00;;;1.95;;
13651;SDS011;6899;51.546;6.912;2022-10-03T14:46:24;5.82;;;2.53;;
13651;SDS011;6899;51.546;6.912;2022-10-03T14:48:58;5.57;;;2.45;;
13651;SDS011;6899;51.546;6.912;2022-10-03T14:51:33;4.22;;;2.17;;
13651;SDS011;6899;51.546;6.912;2022-10-03T14:54:05;4.93;;;1.73;;
13651;SDS011;6899;51.546;6.912;2022-10-03T14:56:44;4.13;;;1.95;;
13651;SDS011;6899;51.546;6.912;2022-10-03T14:59:18;4.28;;;1.63;;
13651;SDS011;6899;51.546;6.912;2022-10-03T15:01:47;4.78;;;1.75;;
13651;SDS011;6899;51.546;6.912;2022-10-03T15:04:20;4.68;;;1.88;;
13651;SDS011;6899;51.546;6.912;2022-10-03T15:06:55;3.95;;;1.70;;
13651;SDS011;6899;51.546;6.912;2022-10-03T15:09:29;3.70;;;1.60;;
13651;SDS011;6899;51.546;6.912;2022-10-03T15:12:11;3.70;;;1.67;;
13651;SDS011;6899;51.546;6.912;2022-10-03T15:14:42;8.57;;;2.17;;
13651;SDS011;6899;51.546;6.912;2022-10-03T15:17:16;3.85;;;1.55;;
13651;SDS011;6899;51.546;6.912;2022-10-03T15:19:47;2.33;;;1.33;;
13651;SDS011;6899;51.546;6.912;2022-10-03T15:22:22;4.35;;;1.73;;
13651;SDS011;6899;51.546;6.912;2022-10-03T15:25:04;3.70;;;1.70;;
13651;SDS011;6899;51.546;6.912;2022-10-03T15:27:39;9.00;;;1.55;;
13651;SDS011;6899;51.546;6.912;2022-10-03T15:30:14;4.10;;;1.75;;
13651;SDS011;6899;51.546;6.912;2022-10-03T15:32:46;3.60;;;1.60;;
13651;SDS011;6899;51.546;6.912;2022-10-03T15:35:15;4.18;;;1.80;;
13651;SDS011;6899;51.546;6.912;2022-10-03T15:37:44;3.22;;;1.52;;
13651;SDS011;6899;51.546;6.912;2022-10-03T15:40:18;3.22;;;1.50;;
13651;SDS011;6899;51.546;6.912;2022-10-03T15:42:50;3.65;;;2.00;;
13651;SDS011;6899;51.546;6.912;2022-10-03T15:45:26;4.57;;;3.40;;
13651;SDS011;6899;51.546;6.912;2022-10-03T15:47:57;8.40;;;3.15;;
13651;SDS011;6899;51.546;6.912;2022-10-03T15:50:28;6.63;;;2.05;;
13651;SDS011;6899;51.546;6.912;2022-10-03T15:52:59;5.30;;;1.60;;
13651;SDS011;6899;51.546;6.912;2022-10-03T15:55:33;4.70;;;1.52;;
13651;SDS011;6899;51.546;6.912;2022-10-03T15:58:10;5.50;;;1.30;;
13651;SDS011;6899;51.546;6.912;2022-10-03T16:00:42;5.05;;;1.52;;
13651;SDS011;6899;51.546;6.912;2022-10-03T16:03:14;3.97;;;1.33;;
13651;SDS011;6899;51.546;6.912;2022-10-03T16:05:48;4.00;;;1.60;;
13651;SDS011;6899;51.546;6.912;2022-10-03T16:08:21;5.15;;;1.95;;
13651;SDS011;6899;51.546;6.912;2022-10-03T16:10:56;3.03;;;1.60;;
13651;SDS011;6899;51.546;6.912;2022-10-03T16:13:33;6.05;;;1.90;;
13651;SDS011;6899;51.546;6.912;2022-10-03T16:16:07;4.68;;;1.50;;
13651;SDS011;6899;51.546;6.912;2022-10-03T16:18:49;3.97;;;1.75;;
13651;SDS011;6899;51.546;6.912;2022-10-03T16:24:17;2.35;;;1.65;;
13651;SDS011;6899;51.546;6.912;2022-10-03T16:26:54;7.35;;;2.13;;
13651;SDS011;6899;51.546;6.912;2022-10-03T16:29:37;5.13;;;2.13;;
13651;SDS011;6899;51.546;6.912;2022-10-03T16:32:09;6.05;;;2.08;;
13651;SDS011;6899;51.546;6.912;2022-10-03T16:34:43;3.38;;;1.60;;
13651;SDS011;6899;51.546;6.912;2022-10-03T16:37:18;3.35;;;1.70;;
13651;SDS011;6899;51.546;6.912;2022-10-03T16:39:52;5.18;;;2.03;;
13651;SDS011;6899;51.546;6.912;2022-10-03T16:42:23;5.43;;;1.75;;
13651;SDS011;6899;51.546;6.912;2022-10-03T16:44:54;3.72;;;1.80;;
13651;SDS011;6899;51.546;6.912;2022-10-03T16:47:32;7.18;;;2.70;;
13651;SDS011;6899;51.546;6.912;2022-10-03T16:50:01;7.72;;;4.07;;
13651;SDS011;6899;51.546;6.912;2022-10-03T16:52:47;4.65;;;2.10;;
13651;SDS011;6899;51.546;6.912;2022-10-03T16:55:17;5.22;;;2.10;;
13651;SDS011;6899;51.546;6.912;2022-10-03T16:57:51;3.45;;;1.50;;
13651;SDS011;6899;51.546;6.912;2022-10-03T17:00:23;8.27;;;2.58;;
13651;SDS011;6899;51.546;6.912;2022-10-03T17:02:57;5.43;;;2.35;;
13651;SDS011;6899;51.546;6.912;2022-10-03T17:05:24;3.30;;;1.80;;
13651;SDS011;6899;51.546;6.912;2022-10-03T17:07:52;7.28;;;2.00;;
13651;SDS011;6899;51.546;6.912;2022-10-03T17:10:33;4.38;;;1.70;;
13651;SDS011;6899;51.546;6.912;2022-10-03T17:13:11;4.20;;;1.77;;
13651;SDS011;6899;51.546;6.912;2022-10-03T17:15:46;6.65;;;2.25;;
13651;SDS011;6899;51.546;6.912;2022-10-03T17:18:22;7.47;;;2.40;;
13651;SDS011;6899;51.546;6.912;2022-10-03T17:20:52;4.95;;;2.10;;
13651;SDS011;6899;51.546;6.912;2022-10-03T17:23:28;3.35;;;1.77;;
13651;SDS011;6899;51.546;6.912;2022-10-03T17:26:04;6.20;;;2.10;;
13651;SDS011;6899;51.546;6.912;2022-10-03T17:28:36;4.07;;;2.20;;
13651;SDS011;6899;51.546;6.912;2022-10-03T17:31:13;4.50;;;2.17;;
13651;SDS011;6899;51.546;6.912;2022-10-03T17:34:01;4.43;;;2.35;;
13651;SDS011;6899;51.546;6.912;2022-10-03T17:39:31;5.80;;;3.30;;
13651;SDS011;6899;51.546;6.912;2022-10-03T17:42:13;5.85;;;3.20;;
13651;SDS011;6899;51.546;6.912;2022-10-03T17:45:04;4.25;;;2.25;;
13651;SDS011;6899;51.546;6.912;2022-10-03T17:47:44;4.85;;;2.80;;
13651;SDS011;6899;51.546;6.912;2022-10-03T17:50:17;8.77;;;2.58;;
13651;SDS011;6899;51.546;6.912;2022-10-03T17:52:55;4.82;;;2.20;;
13651;SDS011;6899;51.546;6.912;2022-10-03T17:55:25;4.63;;;2.28;;
13651;SDS011;6899;51.546;6.912;2022-10-03T17:57:56;5.38;;;2.83;;
13651;SDS011;6899;51.546;6.912;2022-10-03T18:00:26;7.40;;;2.92;;
13651;SDS011;6899;51.546;6.912;2022-10-03T18:02:59;6.78;;;2.75;;
13651;SDS011;6899;51.546;6.912;2022-10-03T18:05:29;4.68;;;2.50;;
13651;SDS011;6899;51.546;6.912;2022-10-03T18:08:00;3.78;;;2.63;;
13651;SDS011;6899;51.546;6.912;2022-10-03T18:10:33;3.55;;;2.63;;
13651;SDS011;6899;51.546;6.912;2022-10-03T18:13:05;4.10;;;2.33;;
13651;SDS011;6899;51.546;6.912;2022-10-03T18:21:45;7.50;;;3.33;;
13651;SDS011;6899;51.546;6.912;2022-10-03T18:24:36;5.22;;;2.92;;
13651;SDS011;6899;51.546;6.912;2022-10-03T18:27:35;6.60;;;3.22;;
13651;SDS011;6899;51.546;6.912;2022-10-03T18:30:22;6.72;;;3.30;;
13651;SDS011;6899;51.546;6.912;2022-10-03T18:32:52;6.07;;;3.05;;
13651;SDS011;6899;51.546;6.912;2022-10-03T18:35:34;7.00;;;3.45;;
13651;SDS011;6899;51.546;6.912;2022-10-03T18:38:04;8.07;;;3.40;;
13651;SDS011;6899;51.546;6.912;2022-10-03T18:40:39;7.60;;;3.45;;
13651;SDS011;6899;51.546;6.912;2022-10-03T18:43:21;4.78;;;3.10;;
13651;SDS011;6899;51.546;6.912;2022-10-03T18:45:53;5.80;;;3.05;;
13651;SDS011;6899;51.546;6.912;2022-10-03T18:48:26;8.38;;;3.60;;
13651;SDS011;6899;51.546;6.912;2022-10-03T18:51:02;7.22;;;4.22;;
13651;SDS011;6899;51.546;6.912;2022-10-03T18:53:36;7.82;;;3.88;;
13651;SDS011;6899;51.546;6.912;2022-10-03T18:56:09;8.30;;;4.70;;
13651;SDS011;6899;51.546;6.912;2022-10-03T18:58:38;6.95;;;3.65;;
13651;SDS011;6899;51.546;6.912;2022-10-03T19:01:12;8.25;;;4.72;;
13651;SDS011;6899;51.546;6.912;2022-10-03T19:03:43;7.60;;;4.72;;
13651;SDS011;6899;51.546;6.912;2022-10-03T19:06:16;6.65;;;4.55;;
13651;SDS011;6899;51.546;6.912;2022-10-03T19:08:48;7.30;;;4.40;;
13651;SDS011;6899;51.546;6.912;2022-10-03T19:11:18;9.65;;;4.60;;
13651;SDS011;6899;51.546;6.912;2022-10-03T19:13:54;8.23;;;4.05;;
13651;SDS011;6899;51.546;6.912;2022-10-03T19:16:29;5.35;;;4.07;;